sensor_id;sensor_type;location;lat;lon;timestamp;P1;durP1;ratioP1;P2;durP2;ratioP2
22973;SDS011;11653;50.848;4.584;2022-10-16T00:01:45;2.17;;;1.40;;
22973;SDS011;11653;50.848;4.584;2022-10-16T00:04:11;3.53;;;1.20;;
22973;SDS011;11653;50.848;4.584;2022-10-16T00:06:37;2.23;;;1.07;;
22973;SDS011;11653;50.848;4.584;2022-10-16T00:09:03;2.40;;;1.20;;
22973;SDS011;11653;50.848;4.584;2022-10-16T00:11:31;2.63;;;1.20;;
22973;SDS011;11653;50.848;4.584;2022-10-16T00:13:59;2.77;;;1.30;;
22973;SDS011;11653;50.848;4.584;2022-10-16T00:16:25;3.13;;;1.20;;
22973;SDS011;11653;50.848;4.584;2022-10-16T00:18:52;2.87;;;1.40;;
22973;SDS011;11653;50.848;4.584;2022-10-16T00:21:19;2.47;;;1.47;;
22973;SDS011;11653;50.848;4.584;2022-10-16T00:23:46;1.50;;;1.13;;
22973;SDS011;11653;50.848;4.584;2022-10-16T00:26:14;2.30;;;1.20;;
22973;SDS011;11653;50.848;4.584;2022-10-16T00:28:41;3.50;;;1.13;;
22973;SDS011;11653;50.848;4.584;2022-10-16T00:31:08;1.47;;;1.27;;
22973;SDS011;11653;50.848;4.584;2022-10-16T00:33:35;2.87;;;1.30;;
22973;SDS011;11653;50.848;4.584;2022-10-16T00:36:03;1.60;;;1.30;;
22973;SDS011;11653;50.848;4.584;2022-10-16T00:38:29;2.60;;;1.27;;
22973;SDS011;11653;50.848;4.584;2022-10-16T00:40:55;4.20;;;1.30;;
22973;SDS011;11653;50.848;4.584;2022-10-16T00:43:41;2.93;;;1.20;;
22973;SDS011;11653;50.848;4.584;2022-10-16T00:46:33;1.13;;;1.03;;
22973;SDS011;11653;50.848;4.584;2022-10-16T00:49:08;1.63;;;1.50;;
22973;SDS011;11653;50.848;4.584;2022-10-16T00:51:54;3.87;;;1.30;;
22973;SDS011;11653;50.848;4.584;2022-10-16T00:54:21;3.37;;;1.40;;
22973;SDS011;11653;50.848;4.584;2022-10-16T00:56:49;1.20;;;1.10;;
22973;SDS011;11653;50.848;4.584;2022-10-16T00:59:20;1.87;;;1.40;;
22973;SDS011;11653;50.848;4.584;2022-10-16T01:01:52;1.87;;;1.33;;
22973;SDS011;11653;50.848;4.584;2022-10-16T01:04:18;6.60;;;1.67;;
22973;SDS011;11653;50.848;4.584;2022-10-16T01:17:18;4.50;;;1.37;;
22973;SDS011;11653;50.848;4.584;2022-10-16T01:28:41;4.83;;;1.63;;
22973;SDS011;11653;50.848;4.584;2022-10-16T01:31:25;2.20;;;1.57;;
22973;SDS011;11653;50.848;4.584;2022-10-16T01:34:05;5.80;;;1.40;;
22973;SDS011;11653;50.848;4.584;2022-10-16T01:36:56;3.93;;;1.70;;
22973;SDS011;11653;50.848;4.584;2022-10-16T01:39:29;5.10;;;1.60;;
22973;SDS011;11653;50.848;4.584;2022-10-16T01:42:00;3.30;;;1.60;;
22973;SDS011;11653;50.848;4.584;2022-10-16T01:44:31;2.50;;;1.67;;
22973;SDS011;11653;50.848;4.584;2022-10-16T01:46:58;2.37;;;1.63;;
22973;SDS011;11653;50.848;4.584;2022-10-16T01:49:25;2.97;;;1.60;;
22973;SDS011;11653;50.848;4.584;2022-10-16T01:51:55;3.20;;;1.43;;
22973;SDS011;11653;50.848;4.584;2022-10-16T01:54:24;1.70;;;1.40;;
22973;SDS011;11653;50.848;4.584;2022-10-16T01:56:52;9.60;;;1.77;;
22973;SDS011;11653;50.848;4.584;2022-10-16T01:59:21;2.40;;;1.50;;
22973;SDS011;11653;50.848;4.584;2022-10-16T02:01:52;3.63;;;1.50;;
22973;SDS011;11653;50.848;4.584;2022-10-16T02:05:08;2.07;;;1.37;;
22973;SDS011;11653;50.848;4.584;2022-10-16T02:07:09;4.00;;;1.70;;
22973;SDS011;11653;50.848;4.584;2022-10-16T02:09:35;3.83;;;1.60;;
22973;SDS011;11653;50.848;4.584;2022-10-16T02:12:04;3.67;;;1.67;;
22973;SDS011;11653;50.848;4.584;2022-10-16T02:14:38;3.70;;;1.70;;
22973;SDS011;11653;50.848;4.584;2022-10-16T02:17:11;3.67;;;1.70;;
22973;SDS011;11653;50.848;4.584;2022-10-16T02:19:39;2.30;;;1.63;;
22973;SDS011;11653;50.848;4.584;2022-10-16T02:22:07;4.80;;;2.20;;
22973;SDS011;11653;50.848;4.584;2022-10-16T02:27:07;5.80;;;2.00;;
22973;SDS011;11653;50.848;4.584;2022-10-16T02:29:39;3.77;;;1.73;;
22973;SDS011;11653;50.848;4.584;2022-10-16T02:32:10;3.67;;;1.60;;
22973;SDS011;11653;50.848;4.584;2022-10-16T02:34:39;3.50;;;1.90;;
22973;SDS011;11653;50.848;4.584;2022-10-16T02:37:05;4.80;;;2.10;;
22973;SDS011;11653;50.848;4.584;2022-10-16T02:39:32;3.77;;;1.70;;
22973;SDS011;11653;50.848;4.584;2022-10-16T02:41:58;3.43;;;1.80;;
22973;SDS011;11653;50.848;4.584;2022-10-16T02:44:24;2.17;;;1.70;;
22973;SDS011;11653;50.848;4.584;2022-10-16T02:46:50;4.07;;;2.10;;
22973;SDS011;11653;50.848;4.584;2022-10-16T02:49:15;2.93;;;1.83;;
22973;SDS011;11653;50.848;4.584;2022-10-16T02:51:41;4.50;;;2.37;;
22973;SDS011;11653;50.848;4.584;2022-10-16T02:54:07;3.33;;;2.00;;
22973;SDS011;11653;50.848;4.584;2022-10-16T02:56:32;4.90;;;1.77;;
22973;SDS011;11653;50.848;4.584;2022-10-16T02:58:58;2.67;;;2.10;;
22973;SDS011;11653;50.848;4.584;2022-10-16T03:01:24;5.97;;;1.90;;
22973;SDS011;11653;50.848;4.584;2022-10-16T03:03:50;4.67;;;2.37;;
22973;SDS011;11653;50.848;4.584;2022-10-16T03:06:15;3.67;;;2.10;;
22973;SDS011;11653;50.848;4.584;2022-10-16T03:08:41;4.20;;;2.07;;
22973;SDS011;11653;50.848;4.584;2022-10-16T03:11:07;5.37;;;2.23;;
22973;SDS011;11653;50.848;4.584;2022-10-16T03:13:32;3.73;;;2.07;;
22973;SDS011;11653;50.848;4.584;2022-10-16T03:15:58;4.17;;;2.30;;
22973;SDS011;11653;50.848;4.584;2022-10-16T03:18:24;5.73;;;2.10;;
22973;SDS011;11653;50.848;4.584;2022-10-16T03:20:50;2.43;;;2.00;;
22973;SDS011;11653;50.848;4.584;2022-10-16T03:23:15;3.77;;;2.07;;
22973;SDS011;11653;50.848;4.584;2022-10-16T03:25:41;6.47;;;2.33;;
22973;SDS011;11653;50.848;4.584;2022-10-16T03:28:07;2.97;;;1.90;;
22973;SDS011;11653;50.848;4.584;2022-10-16T03:30:32;5.50;;;2.20;;
22973;SDS011;11653;50.848;4.584;2022-10-16T03:32:58;3.90;;;2.17;;
22973;SDS011;11653;50.848;4.584;2022-10-16T03:35:24;4.50;;;2.47;;
22973;SDS011;11653;50.848;4.584;2022-10-16T03:37:50;6.80;;;2.67;;
22973;SDS011;11653;50.848;4.584;2022-10-16T03:40:16;5.90;;;2.23;;
22973;SDS011;11653;50.848;4.584;2022-10-16T03:42:42;4.17;;;2.80;;
22973;SDS011;11653;50.848;4.584;2022-10-16T03:45:08;3.57;;;2.30;;
22973;SDS011;11653;50.848;4.584;2022-10-16T03:47:35;9.27;;;2.83;;
22973;SDS011;11653;50.848;4.584;2022-10-16T03:50:01;4.47;;;2.40;;
22973;SDS011;11653;50.848;4.584;2022-10-16T03:52:27;4.07;;;2.20;;
22973;SDS011;11653;50.848;4.584;2022-10-16T03:54:53;4.33;;;2.33;;
22973;SDS011;11653;50.848;4.584;2022-10-16T03:57:18;3.57;;;2.20;;
22973;SDS011;11653;50.848;4.584;2022-10-16T03:59:45;8.07;;;2.33;;
22973;SDS011;11653;50.848;4.584;2022-10-16T04:02:11;5.37;;;2.70;;
22973;SDS011;11653;50.848;4.584;2022-10-16T04:04:37;3.93;;;2.53;;
22973;SDS011;11653;50.848;4.584;2022-10-16T04:07:02;5.23;;;2.73;;
22973;SDS011;11653;50.848;4.584;2022-10-16T04:09:28;4.53;;;2.40;;
22973;SDS011;11653;50.848;4.584;2022-10-16T04:11:54;3.57;;;2.50;;
22973;SDS011;11653;50.848;4.584;2022-10-16T04:14:20;3.80;;;2.43;;
22973;SDS011;11653;50.848;4.584;2022-10-16T04:16:45;8.63;;;2.70;;
22973;SDS011;11653;50.848;4.584;2022-10-16T04:19:11;5.00;;;2.30;;
22973;SDS011;11653;50.848;4.584;2022-10-16T04:21:37;5.60;;;2.80;;
22973;SDS011;11653;50.848;4.584;2022-10-16T04:24:03;3.10;;;2.60;;
22973;SDS011;11653;50.848;4.584;2022-10-16T04:26:29;5.13;;;2.60;;
22973;SDS011;11653;50.848;4.584;2022-10-16T04:28:55;8.03;;;2.90;;
22973;SDS011;11653;50.848;4.584;2022-10-16T04:31:20;4.53;;;2.80;;
22973;SDS011;11653;50.848;4.584;2022-10-16T04:33:46;5.37;;;3.00;;
22973;SDS011;11653;50.848;4.584;2022-10-16T04:36:12;4.67;;;2.77;;
22973;SDS011;11653;50.848;4.584;2022-10-16T04:38:38;4.20;;;2.77;;
22973;SDS011;11653;50.848;4.584;2022-10-16T04:41:05;5.83;;;2.83;;
22973;SDS011;11653;50.848;4.584;2022-10-16T04:43:31;5.63;;;2.67;;
22973;SDS011;11653;50.848;4.584;2022-10-16T04:45:58;4.50;;;3.10;;
22973;SDS011;11653;50.848;4.584;2022-10-16T04:48:23;3.97;;;2.67;;
22973;SDS011;11653;50.848;4.584;2022-10-16T04:50:49;6.53;;;3.20;;
22973;SDS011;11653;50.848;4.584;2022-10-16T04:53:15;2.90;;;2.37;;
22973;SDS011;11653;50.848;4.584;2022-10-16T04:55:41;6.57;;;2.73;;
22973;SDS011;11653;50.848;4.584;2022-10-16T04:58:07;3.50;;;2.63;;
22973;SDS011;11653;50.848;4.584;2022-10-16T05:00:33;4.17;;;2.80;;
22973;SDS011;11653;50.848;4.584;2022-10-16T05:02:59;6.57;;;2.67;;
22973;SDS011;11653;50.848;4.584;2022-10-16T05:05:26;4.83;;;2.67;;
22973;SDS011;11653;50.848;4.584;2022-10-16T05:07:52;7.60;;;2.90;;
22973;SDS011;11653;50.848;4.584;2022-10-16T05:10:18;5.07;;;2.50;;
22973;SDS011;11653;50.848;4.584;2022-10-16T05:12:44;4.53;;;2.70;;
22973;SDS011;11653;50.848;4.584;2022-10-16T05:15:10;7.83;;;3.00;;
22973;SDS011;11653;50.848;4.584;2022-10-16T05:17:36;4.90;;;2.83;;
22973;SDS011;11653;50.848;4.584;2022-10-16T05:20:02;4.77;;;2.87;;
22973;SDS011;11653;50.848;4.584;2022-10-16T05:22:28;6.20;;;3.00;;
22973;SDS011;11653;50.848;4.584;2022-10-16T05:24:54;4.83;;;3.07;;
22973;SDS011;11653;50.848;4.584;2022-10-16T05:27:20;4.73;;;2.93;;
22973;SDS011;11653;50.848;4.584;2022-10-16T05:29:46;6.50;;;3.10;;
22973;SDS011;11653;50.848;4.584;2022-10-16T05:32:13;5.03;;;2.90;;
22973;SDS011;11653;50.848;4.584;2022-10-16T05:34:42;5.20;;;3.23;;
22973;SDS011;11653;50.848;4.584;2022-10-16T05:37:09;3.43;;;3.10;;
22973;SDS011;11653;50.848;4.584;2022-10-16T05:39:36;8.87;;;3.33;;
22973;SDS011;11653;50.848;4.584;2022-10-16T05:42:02;5.90;;;3.30;;
22973;SDS011;11653;50.848;4.584;2022-10-16T05:44:28;4.33;;;2.90;;
22973;SDS011;11653;50.848;4.584;2022-10-16T05:46:54;7.87;;;2.83;;
22973;SDS011;11653;50.848;4.584;2022-10-16T05:49:20;9.77;;;3.00;;
22973;SDS011;11653;50.848;4.584;2022-10-16T05:51:45;4.00;;;2.80;;
22973;SDS011;11653;50.848;4.584;2022-10-16T05:54:11;3.30;;;2.97;;
22973;SDS011;11653;50.848;4.584;2022-10-16T05:56:36;7.57;;;3.07;;
22973;SDS011;11653;50.848;4.584;2022-10-16T05:59:05;6.50;;;2.80;;
22973;SDS011;11653;50.848;4.584;2022-10-16T06:01:31;6.00;;;2.80;;
22973;SDS011;11653;50.848;4.584;2022-10-16T06:03:57;14.20;;;3.37;;
22973;SDS011;11653;50.848;4.584;2022-10-16T06:06:23;7.53;;;2.93;;
22973;SDS011;11653;50.848;4.584;2022-10-16T06:08:50;6.93;;;3.10;;
22973;SDS011;11653;50.848;4.584;2022-10-16T06:11:25;4.10;;;2.93;;
22973;SDS011;11653;50.848;4.584;2022-10-16T06:13:53;4.77;;;2.90;;
22973;SDS011;11653;50.848;4.584;2022-10-16T06:16:24;7.20;;;3.37;;
22973;SDS011;11653;50.848;4.584;2022-10-16T06:18:51;6.70;;;3.37;;
22973;SDS011;11653;50.848;4.584;2022-10-16T06:21:21;4.07;;;3.03;;
22973;SDS011;11653;50.848;4.584;2022-10-16T06:23:51;6.97;;;3.00;;
22973;SDS011;11653;50.848;4.584;2022-10-16T06:26:18;8.37;;;3.30;;
22973;SDS011;11653;50.848;4.584;2022-10-16T06:28:45;5.33;;;3.03;;
22973;SDS011;11653;50.848;4.584;2022-10-16T06:31:11;7.77;;;3.37;;
22973;SDS011;11653;50.848;4.584;2022-10-16T06:33:38;6.00;;;3.53;;
22973;SDS011;11653;50.848;4.584;2022-10-16T06:36:09;4.20;;;3.00;;
22973;SDS011;11653;50.848;4.584;2022-10-16T06:38:36;10.47;;;3.77;;
22973;SDS011;11653;50.848;4.584;2022-10-16T06:41:02;6.03;;;3.63;;
22973;SDS011;11653;50.848;4.584;2022-10-16T06:43:29;6.57;;;3.60;;
22973;SDS011;11653;50.848;4.584;2022-10-16T06:45:58;10.17;;;4.00;;
22973;SDS011;11653;50.848;4.584;2022-10-16T06:48:25;4.47;;;3.73;;
22973;SDS011;11653;50.848;4.584;2022-10-16T06:51:08;7.03;;;3.50;;
22973;SDS011;11653;50.848;4.584;2022-10-16T06:53:37;7.57;;;3.80;;
22973;SDS011;11653;50.848;4.584;2022-10-16T06:56:08;11.30;;;4.57;;
22973;SDS011;11653;50.848;4.584;2022-10-16T06:58:40;10.90;;;5.70;;
22973;SDS011;11653;50.848;4.584;2022-10-16T07:01:07;8.30;;;4.73;;
22973;SDS011;11653;50.848;4.584;2022-10-16T07:03:35;7.93;;;3.63;;
22973;SDS011;11653;50.848;4.584;2022-10-16T07:06:03;5.23;;;2.30;;
22973;SDS011;11653;50.848;4.584;2022-10-16T07:08:30;5.27;;;1.93;;
22973;SDS011;11653;50.848;4.584;2022-10-16T07:11:00;6.83;;;1.80;;
22973;SDS011;11653;50.848;4.584;2022-10-16T07:13:27;2.60;;;1.57;;
22973;SDS011;11653;50.848;4.584;2022-10-16T07:15:53;4.93;;;1.47;;
22973;SDS011;11653;50.848;4.584;2022-10-16T07:18:19;4.87;;;1.50;;
22973;SDS011;11653;50.848;4.584;2022-10-16T07:20:45;4.63;;;1.80;;
22973;SDS011;11653;50.848;4.584;2022-10-16T07:23:10;3.97;;;1.77;;
22973;SDS011;11653;50.848;4.584;2022-10-16T07:25:36;2.27;;;1.10;;
22973;SDS011;11653;50.848;4.584;2022-10-16T07:28:02;3.97;;;1.47;;
22973;SDS011;11653;50.848;4.584;2022-10-16T07:30:27;5.60;;;1.60;;
22973;SDS011;11653;50.848;4.584;2022-10-16T07:32:53;5.83;;;1.60;;
22973;SDS011;11653;50.848;4.584;2022-10-16T07:35:19;4.37;;;1.27;;
22973;SDS011;11653;50.848;4.584;2022-10-16T07:37:47;3.43;;;1.27;;
22973;SDS011;11653;50.848;4.584;2022-10-16T07:40:13;5.97;;;1.50;;
22973;SDS011;11653;50.848;4.584;2022-10-16T07:42:39;3.33;;;1.53;;
22973;SDS011;11653;50.848;4.584;2022-10-16T07:45:05;3.73;;;1.80;;
22973;SDS011;11653;50.848;4.584;2022-10-16T07:47:31;3.57;;;1.20;;
22973;SDS011;11653;50.848;4.584;2022-10-16T07:49:56;3.77;;;1.50;;
22973;SDS011;11653;50.848;4.584;2022-10-16T07:52:22;5.40;;;1.40;;
22973;SDS011;11653;50.848;4.584;2022-10-16T07:54:48;6.00;;;2.23;;
22973;SDS011;11653;50.848;4.584;2022-10-16T07:57:13;5.20;;;1.30;;
22973;SDS011;11653;50.848;4.584;2022-10-16T07:59:44;4.10;;;1.40;;
22973;SDS011;11653;50.848;4.584;2022-10-16T08:02:11;2.57;;;1.20;;
22973;SDS011;11653;50.848;4.584;2022-10-16T08:04:37;2.20;;;1.20;;
22973;SDS011;11653;50.848;4.584;2022-10-16T08:07:02;2.37;;;1.10;;
22973;SDS011;11653;50.848;4.584;2022-10-16T08:09:28;2.70;;;1.40;;
22973;SDS011;11653;50.848;4.584;2022-10-16T08:11:54;2.83;;;1.13;;
22973;SDS011;11653;50.848;4.584;2022-10-16T08:14:19;3.90;;;1.25;;
22973;SDS011;11653;50.848;4.584;2022-10-16T08:16:45;3.97;;;1.13;;
22973;SDS011;11653;50.848;4.584;2022-10-16T08:19:11;4.55;;;1.08;;
22973;SDS011;11653;50.848;4.584;2022-10-16T08:21:37;5.57;;;1.38;;
22973;SDS011;11653;50.848;4.584;2022-10-16T08:24:02;3.42;;;1.30;;
22973;SDS011;11653;50.848;4.584;2022-10-16T08:26:28;3.70;;;0.90;;
22973;SDS011;11653;50.848;4.584;2022-10-16T08:28:56;3.90;;;0.90;;
22973;SDS011;11653;50.848;4.584;2022-10-16T08:31:22;3.15;;;1.00;;
22973;SDS011;11653;50.848;4.584;2022-10-16T08:33:51;6.15;;;1.13;;
22973;SDS011;11653;50.848;4.584;2022-10-16T08:36:17;3.90;;;1.00;;
22973;SDS011;11653;50.848;4.584;2022-10-16T08:38:43;3.22;;;1.38;;
22973;SDS011;11653;50.848;4.584;2022-10-16T08:41:28;3.00;;;1.00;;
22973;SDS011;11653;50.848;4.584;2022-10-16T08:47:13;4.60;;;1.20;;
22973;SDS011;11653;50.848;4.584;2022-10-16T08:50:28;5.07;;;1.00;;
22973;SDS011;11653;50.848;4.584;2022-10-16T08:52:35;7.70;;;0.90;;
22973;SDS011;11653;50.848;4.584;2022-10-16T08:55:08;3.90;;;1.10;;
22973;SDS011;11653;50.848;4.584;2022-10-16T08:57:54;4.30;;;1.00;;
22973;SDS011;11653;50.848;4.584;2022-10-16T09:00:23;2.83;;;0.80;;
22973;SDS011;11653;50.848;4.584;2022-10-16T09:03:04;4.45;;;0.88;;
22973;SDS011;11653;50.848;4.584;2022-10-16T09:19:00;4.38;;;0.90;;
22973;SDS011;11653;50.848;4.584;2022-10-16T09:21:32;6.57;;;1.37;;
22973;SDS011;11653;50.848;4.584;2022-10-16T09:24:13;3.00;;;0.80;;
22973;SDS011;11653;50.848;4.584;2022-10-16T09:26:42;4.40;;;1.13;;
22973;SDS011;11653;50.848;4.584;2022-10-16T09:29:12;5.83;;;1.10;;
22973;SDS011;11653;50.848;4.584;2022-10-16T09:35:03;4.97;;;0.90;;
22973;SDS011;11653;50.848;4.584;2022-10-16T09:37:41;4.13;;;0.77;;
22973;SDS011;11653;50.848;4.584;2022-10-16T09:43:38;2.47;;;0.77;;
22973;SDS011;11653;50.848;4.584;2022-10-16T09:46:09;6.93;;;1.43;;
22973;SDS011;11653;50.848;4.584;2022-10-16T09:49:05;6.97;;;1.30;;
22973;SDS011;11653;50.848;4.584;2022-10-16T09:51:51;7.10;;;1.13;;
22973;SDS011;11653;50.848;4.584;2022-10-16T09:54:28;2.77;;;0.80;;
22973;SDS011;11653;50.848;4.584;2022-10-16T09:57:03;3.13;;;1.20;;
22973;SDS011;11653;50.848;4.584;2022-10-16T09:59:33;3.35;;;1.00;;
22973;SDS011;11653;50.848;4.584;2022-10-16T10:02:04;5.05;;;1.02;;
22973;SDS011;11653;50.848;4.584;2022-10-16T10:05:17;5.40;;;1.10;;
22973;SDS011;11653;50.848;4.584;2022-10-16T10:07:54;4.35;;;0.75;;
22973;SDS011;11653;50.848;4.584;2022-10-16T10:10:23;4.07;;;0.85;;
22973;SDS011;11653;50.848;4.584;2022-10-16T10:12:50;3.35;;;1.00;;
22973;SDS011;11653;50.848;4.584;2022-10-16T10:15:16;2.65;;;0.98;;
22973;SDS011;11653;50.848;4.584;2022-10-16T10:17:56;2.78;;;0.93;;
22973;SDS011;11653;50.848;4.584;2022-10-16T10:22:52;2.45;;;0.70;;
22973;SDS011;11653;50.848;4.584;2022-10-16T10:36:54;4.07;;;0.90;;
22973;SDS011;11653;50.848;4.584;2022-10-16T10:39:51;2.22;;;0.98;;
22973;SDS011;11653;50.848;4.584;2022-10-16T10:42:40;3.42;;;0.77;;
22973;SDS011;11653;50.848;4.584;2022-10-16T10:45:17;2.22;;;0.50;;
22973;SDS011;11653;50.848;4.584;2022-10-16T10:47:56;1.77;;;0.93;;
22973;SDS011;11653;50.848;4.584;2022-10-16T11:01:36;4.90;;;1.00;;
22973;SDS011;11653;50.848;4.584;2022-10-16T11:06:41;6.07;;;1.42;;
22973;SDS011;11653;50.848;4.584;2022-10-16T11:14:36;4.93;;;1.00;;
22973;SDS011;11653;50.848;4.584;2022-10-16T11:17:05;2.97;;;0.68;;
22973;SDS011;11653;50.848;4.584;2022-10-16T11:19:39;4.10;;;0.88;;
22973;SDS011;11653;50.848;4.584;2022-10-16T11:30:39;1.75;;;0.80;;
22973;SDS011;11653;50.848;4.584;2022-10-16T11:33:17;2.35;;;0.88;;
22973;SDS011;11653;50.848;4.584;2022-10-16T11:36:06;3.97;;;0.60;;
22973;SDS011;11653;50.848;4.584;2022-10-16T11:41:35;4.13;;;0.80;;
22973;SDS011;11653;50.848;4.584;2022-10-16T11:59:04;2.75;;;0.93;;
22973;SDS011;11653;50.848;4.584;2022-10-16T12:04:13;3.03;;;0.70;;
22973;SDS011;11653;50.848;4.584;2022-10-16T12:10:20;4.53;;;1.07;;
22973;SDS011;11653;50.848;4.584;2022-10-16T12:12:51;6.20;;;1.33;;
22973;SDS011;11653;50.848;4.584;2022-10-16T12:17:45;2.30;;;0.80;;
22973;SDS011;11653;50.848;4.584;2022-10-16T12:22:40;3.20;;;0.70;;
22973;SDS011;11653;50.848;4.584;2022-10-16T12:28:06;7.13;;;1.47;;
22973;SDS011;11653;50.848;4.584;2022-10-16T12:37:31;5.33;;;1.43;;
22973;SDS011;11653;50.848;4.584;2022-10-16T12:40:14;3.43;;;0.80;;
22973;SDS011;11653;50.848;4.584;2022-10-16T12:42:50;2.23;;;0.80;;
22973;SDS011;11653;50.848;4.584;2022-10-16T12:47:54;2.30;;;1.20;;
22973;SDS011;11653;50.848;4.584;2022-10-16T12:53:03;15.17;;;6.00;;
22973;SDS011;11653;50.848;4.584;2022-10-16T12:55:45;2.07;;;0.93;;
22973;SDS011;11653;50.848;4.584;2022-10-16T12:58:37;3.27;;;1.47;;
22973;SDS011;11653;50.848;4.584;2022-10-16T13:01:11;6.13;;;2.17;;
22973;SDS011;11653;50.848;4.584;2022-10-16T13:03:54;4.00;;;2.23;;
22973;SDS011;11653;50.848;4.584;2022-10-16T13:09:30;6.00;;;2.40;;
22973;SDS011;11653;50.848;4.584;2022-10-16T13:17:59;2.47;;;0.70;;
22973;SDS011;11653;50.848;4.584;2022-10-16T13:23:37;5.63;;;1.50;;
22973;SDS011;11653;50.848;4.584;2022-10-16T13:26:09;4.53;;;2.00;;
22973;SDS011;11653;50.848;4.584;2022-10-16T13:28:46;5.23;;;1.30;;
22973;SDS011;11653;50.848;4.584;2022-10-16T13:31:14;7.73;;;3.20;;
22973;SDS011;11653;50.848;4.584;2022-10-16T13:33:47;8.00;;;2.07;;
22973;SDS011;11653;50.848;4.584;2022-10-16T13:36:51;5.37;;;2.03;;
22973;SDS011;11653;50.848;4.584;2022-10-16T13:39:21;3.43;;;1.00;;
22973;SDS011;11653;50.848;4.584;2022-10-16T13:42:00;5.27;;;0.90;;
22973;SDS011;11653;50.848;4.584;2022-10-16T13:44:26;3.80;;;1.00;;
22973;SDS011;11653;50.848;4.584;2022-10-16T13:46:59;3.67;;;1.03;;
22973;SDS011;11653;50.848;4.584;2022-10-16T13:49:25;3.43;;;1.13;;
22973;SDS011;11653;50.848;4.584;2022-10-16T13:51:55;3.33;;;1.00;;
22973;SDS011;11653;50.848;4.584;2022-10-16T13:54:25;2.43;;;1.00;;
22973;SDS011;11653;50.848;4.584;2022-10-16T13:56:56;4.80;;;1.40;;
22973;SDS011;11653;50.848;4.584;2022-10-16T13:59:33;3.77;;;1.00;;
22973;SDS011;11653;50.848;4.584;2022-10-16T14:02:22;8.13;;;5.17;;
22973;SDS011;11653;50.848;4.584;2022-10-16T14:05:15;3.10;;;1.30;;
22973;SDS011;11653;50.848;4.584;2022-10-16T14:08:09;3.53;;;2.00;;
22973;SDS011;11653;50.848;4.584;2022-10-16T14:10:39;3.03;;;0.87;;
22973;SDS011;11653;50.848;4.584;2022-10-16T14:13:05;5.43;;;1.37;;
22973;SDS011;11653;50.848;4.584;2022-10-16T14:15:34;3.33;;;1.00;;
22973;SDS011;11653;50.848;4.584;2022-10-16T14:18:01;2.33;;;1.00;;
22973;SDS011;11653;50.848;4.584;2022-10-16T14:20:32;4.07;;;1.40;;
22973;SDS011;11653;50.848;4.584;2022-10-16T14:23:41;8.30;;;2.60;;
22973;SDS011;11653;50.848;4.584;2022-10-16T14:25:53;4.27;;;1.60;;
22973;SDS011;11653;50.848;4.584;2022-10-16T14:28:22;4.63;;;1.60;;
22973;SDS011;11653;50.848;4.584;2022-10-16T14:30:49;4.63;;;1.60;;
22973;SDS011;11653;50.848;4.584;2022-10-16T14:33:31;4.33;;;1.80;;
22973;SDS011;11653;50.848;4.584;2022-10-16T14:36:11;3.80;;;1.13;;
22973;SDS011;11653;50.848;4.584;2022-10-16T14:38:40;3.90;;;1.30;;
22973;SDS011;11653;50.848;4.584;2022-10-16T14:41:07;4.30;;;1.20;;
22973;SDS011;11653;50.848;4.584;2022-10-16T14:43:37;3.63;;;0.90;;
22973;SDS011;11653;50.848;4.584;2022-10-16T14:46:11;4.77;;;1.20;;
22973;SDS011;11653;50.848;4.584;2022-10-16T14:48:42;3.73;;;1.03;;
22973;SDS011;11653;50.848;4.584;2022-10-16T14:51:14;4.23;;;1.40;;
22973;SDS011;11653;50.848;4.584;2022-10-16T14:53:40;3.53;;;1.00;;
22973;SDS011;11653;50.848;4.584;2022-10-16T14:56:07;4.63;;;1.33;;
22973;SDS011;11653;50.848;4.584;2022-10-16T14:58:59;4.77;;;1.90;;
22973;SDS011;11653;50.848;4.584;2022-10-16T15:01:26;2.87;;;1.13;;
22973;SDS011;11653;50.848;4.584;2022-10-16T15:03:51;4.20;;;1.00;;
22973;SDS011;11653;50.848;4.584;2022-10-16T15:06:19;3.53;;;1.37;;
22973;SDS011;11653;50.848;4.584;2022-10-16T15:08:45;2.77;;;0.90;;
22973;SDS011;11653;50.848;4.584;2022-10-16T15:11:15;4.93;;;1.00;;
22973;SDS011;11653;50.848;4.584;2022-10-16T15:13:42;3.43;;;0.97;;
22973;SDS011;11653;50.848;4.584;2022-10-16T15:16:11;3.10;;;1.20;;
22973;SDS011;11653;50.848;4.584;2022-10-16T15:18:38;2.60;;;0.90;;
22973;SDS011;11653;50.848;4.584;2022-10-16T15:21:04;7.33;;;1.23;;
22973;SDS011;11653;50.848;4.584;2022-10-16T15:23:30;2.50;;;0.90;;
22973;SDS011;11653;50.848;4.584;2022-10-16T15:25:56;2.90;;;0.80;;
22973;SDS011;11653;50.848;4.584;2022-10-16T15:28:22;6.77;;;1.23;;
22973;SDS011;11653;50.848;4.584;2022-10-16T15:30:50;3.60;;;1.70;;
22973;SDS011;11653;50.848;4.584;2022-10-16T15:33:18;6.63;;;1.70;;
22973;SDS011;11653;50.848;4.584;2022-10-16T15:35:46;4.57;;;1.20;;
22973;SDS011;11653;50.848;4.584;2022-10-16T15:38:13;4.17;;;0.90;;
22973;SDS011;11653;50.848;4.584;2022-10-16T15:40:39;4.23;;;1.20;;
22973;SDS011;11653;50.848;4.584;2022-10-16T15:43:06;4.03;;;1.30;;
22973;SDS011;11653;50.848;4.584;2022-10-16T15:45:32;5.70;;;1.17;;
22973;SDS011;11653;50.848;4.584;2022-10-16T15:47:58;4.00;;;1.60;;
22973;SDS011;11653;50.848;4.584;2022-10-16T15:50:24;7.87;;;2.90;;
22973;SDS011;11653;50.848;4.584;2022-10-16T15:52:50;5.93;;;2.20;;
22973;SDS011;11653;50.848;4.584;2022-10-16T15:55:16;6.10;;;1.60;;
22973;SDS011;11653;50.848;4.584;2022-10-16T15:57:43;4.53;;;1.40;;
22973;SDS011;11653;50.848;4.584;2022-10-16T16:00:11;6.23;;;1.80;;
22973;SDS011;11653;50.848;4.584;2022-10-16T16:02:39;4.57;;;1.30;;
22973;SDS011;11653;50.848;4.584;2022-10-16T16:05:06;5.53;;;1.33;;
22973;SDS011;11653;50.848;4.584;2022-10-16T16:07:33;2.63;;;1.60;;
22973;SDS011;11653;50.848;4.584;2022-10-16T16:09:59;5.80;;;1.80;;
22973;SDS011;11653;50.848;4.584;2022-10-16T16:12:25;6.27;;;2.10;;
22973;SDS011;11653;50.848;4.584;2022-10-16T16:14:51;10.83;;;2.40;;
22973;SDS011;11653;50.848;4.584;2022-10-16T16:17:16;6.03;;;2.63;;
22973;SDS011;11653;50.848;4.584;2022-10-16T16:19:42;4.60;;;2.93;;
22973;SDS011;11653;50.848;4.584;2022-10-16T16:22:08;5.43;;;3.37;;
22973;SDS011;11653;50.848;4.584;2022-10-16T16:24:35;4.57;;;2.70;;
22973;SDS011;11653;50.848;4.584;2022-10-16T16:27:01;4.23;;;2.17;;
22973;SDS011;11653;50.848;4.584;2022-10-16T16:29:26;6.53;;;1.73;;
22973;SDS011;11653;50.848;4.584;2022-10-16T16:31:52;1.87;;;1.47;;
22973;SDS011;11653;50.848;4.584;2022-10-16T16:34:22;5.10;;;2.60;;
22973;SDS011;11653;50.848;4.584;2022-10-16T16:36:49;5.97;;;2.00;;
22973;SDS011;11653;50.848;4.584;2022-10-16T16:39:15;5.30;;;2.00;;
22973;SDS011;11653;50.848;4.584;2022-10-16T16:41:41;8.17;;;2.50;;
22973;SDS011;11653;50.848;4.584;2022-10-16T16:44:08;7.67;;;2.60;;
22973;SDS011;11653;50.848;4.584;2022-10-16T16:46:35;8.73;;;3.00;;
22973;SDS011;11653;50.848;4.584;2022-10-16T16:49:02;4.63;;;1.93;;
22973;SDS011;11653;50.848;4.584;2022-10-16T16:51:28;6.20;;;1.90;;
22973;SDS011;11653;50.848;4.584;2022-10-16T16:53:54;3.87;;;1.57;;
22973;SDS011;11653;50.848;4.584;2022-10-16T16:56:20;4.63;;;1.60;;
22973;SDS011;11653;50.848;4.584;2022-10-16T16:58:48;9.80;;;2.30;;
22973;SDS011;11653;50.848;4.584;2022-10-16T17:01:14;9.30;;;2.43;;
22973;SDS011;11653;50.848;4.584;2022-10-16T17:03:41;7.23;;;2.10;;
22973;SDS011;11653;50.848;4.584;2022-10-16T17:06:14;3.27;;;1.97;;
22973;SDS011;11653;50.848;4.584;2022-10-16T17:08:40;6.53;;;2.60;;
22973;SDS011;11653;50.848;4.584;2022-10-16T17:11:11;12.13;;;3.63;;
22973;SDS011;11653;50.848;4.584;2022-10-16T17:13:38;7.77;;;3.97;;
22973;SDS011;11653;50.848;4.584;2022-10-16T17:16:04;14.13;;;4.37;;
22973;SDS011;11653;50.848;4.584;2022-10-16T17:18:30;11.87;;;3.70;;
22973;SDS011;11653;50.848;4.584;2022-10-16T17:21:01;7.30;;;2.67;;
22973;SDS011;11653;50.848;4.584;2022-10-16T17:23:29;9.77;;;4.13;;
22973;SDS011;11653;50.848;4.584;2022-10-16T17:25:55;10.67;;;4.03;;